Time;durP1;ratioP1;P1;durP2;ratioP2;P2;SDS_P1;SDS_P2;PMS_P1;PMS_P2;Temp;Humidity;BMP_temperature;BMP_pressure;BME280_temperature;BME280_humidity;BME280_pressure;Samples;Min_cycle;Max_cycle;Signal;HPM_P1;HPM_P2
2024/02/11 00:02:12;;;;;;;16.30;13.77;;;13.20;99.90;;;;;;4974420;28;20429;-68
2024/02/11 00:04:38;;;;;;;14.20;13.00;;;13.20;99.90;;;;;;4973794;28;21179;-69
2024/02/11 00:07:06;;;;;;;14.93;13.53;;;13.10;99.90;;;;;;4973422;28;20427;-69
2024/02/11 00:09:32;;;;;;;14.30;12.80;;;13.10;99.90;;;;;;4974148;28;20176;-69
2024/02/11 00:11:58;;;;;;;14.37;12.97;;;13.10;99.90;;;;;;4975008;28;20556;-69
2024/02/11 00:14:26;;;;;;;14.27;13.13;;;13.00;99.90;;;;;;4973396;28;20263;-68
2024/02/11 00:16:57;;;;;;;14.13;12.90;;;13.00;99.90;;;;;;4978355;28;20674;-68
2024/02/11 00:19:24;;;;;;;16.10;14.50;;;12.90;99.90;;;;;;4993194;28;20440;-69
2024/02/11 00:21:50;;;;;;;14.97;13.50;;;12.80;99.90;;;;;;4993622;28;20473;-69
2024/02/11 00:24:16;;;;;;;14.43;13.10;;;12.80;99.90;;;;;;4992688;28;20497;-68
2024/02/11 00:26:41;;;;;;;15.43;13.93;;;12.70;99.90;;;;;;4993193;28;20178;-69
2024/02/11 00:29:09;;;;;;;15.70;14.30;;;12.60;99.90;;;;;;4993800;28;20194;-69
2024/02/11 00:31:35;;;;;;;15.73;14.20;;;12.60;99.90;;;;;;4992877;28;20205;-68
2024/02/11 00:34:04;;;;;;;14.97;13.47;;;12.60;99.90;;;;;;4993846;28;20416;-69
2024/02/11 00:36:33;;;;;;;15.40;14.00;;;12.60;99.90;;;;;;4991842;28;20210;-69
2024/02/11 00:38:59;;;;;;;16.13;14.70;;;12.60;99.90;;;;;;4974326;28;20409;-68
2024/02/11 00:41:28;;;;;;;13.93;12.60;;;12.60;99.90;;;;;;4981224;28;20795;-68
2024/02/11 00:43:55;;;;;;;13.50;12.40;;;12.60;99.90;;;;;;4993382;28;20256;-69
2024/02/11 00:46:21;;;;;;;13.40;12.30;;;12.60;99.90;;;;;;4992487;28;20459;-69
2024/02/11 00:48:47;;;;;;;13.63;12.43;;;12.50;99.90;;;;;;4993184;28;20451;-68
2024/02/11 00:51:13;;;;;;;13.03;11.77;;;12.50;99.90;;;;;;4993152;28;20233;-68
2024/02/11 00:53:38;;;;;;;13.33;12.00;;;12.50;99.90;;;;;;4992484;28;20909;-68
2024/02/11 00:56:04;;;;;;;13.80;12.50;;;12.50;99.90;;;;;;4992873;28;20512;-68
2024/02/11 00:58:33;;;;;;;13.27;12.07;;;12.50;99.90;;;;;;4992688;28;20264;-68
2024/02/11 01:00:59;;;;;;;13.80;12.57;;;12.50;99.90;;;;;;4993381;28;20433;-69
2024/02/11 01:03:25;;;;;;;14.40;13.00;;;12.50;99.90;;;;;;4975292;28;20511;-68
2024/02/11 01:05:51;;;;;;;14.50;13.20;;;12.50;99.90;;;;;;4992607;28;20499;-69
2024/02/11 01:08:17;;;;;;;14.30;13.20;;;12.50;99.90;;;;;;4992007;28;20267;-69
2024/02/11 01:10:43;;;;;;;13.10;11.43;;;12.50;99.90;;;;;;4992397;28;20504;-68
2024/02/11 01:13:13;;;;;;;14.03;12.83;;;12.60;99.90;;;;;;4993263;28;20422;-68
2024/02/11 01:15:39;;;;;;;12.73;11.63;;;12.60;99.90;;;;;;4992367;28;20184;-68
2024/02/11 01:18:06;;;;;;;13.67;12.47;;;12.60;99.90;;;;;;4992631;28;20948;-68
2024/02/11 01:20:32;;;;;;;50.13;45.03;;;12.60;99.90;;;;;;4991772;28;20183;-68
2024/02/11 01:22:58;;;;;;;15.77;14.37;;;12.60;99.90;;;;;;4993084;28;20479;-68
2024/02/11 01:25:24;;;;;;;14.13;12.23;;;12.60;99.90;;;;;;4992198;28;20193;-68
2024/02/11 01:27:50;;;;;;;14.40;12.47;;;12.60;99.90;;;;;;4993061;28;20178;-65
2024/02/11 01:30:20;;;;;;;14.30;13.00;;;12.60;99.90;;;;;;4992986;28;20455;-65
2024/02/11 01:32:47;;;;;;;14.33;13.10;;;12.60;99.90;;;;;;4991111;28;20943;-65
2024/02/11 01:35:13;;;;;;;13.40;12.20;;;12.60;99.90;;;;;;4992637;28;20424;-64
2024/02/11 01:37:41;;;;;;;14.17;12.87;;;12.60;99.90;;;;;;4991194;28;20429;-65
2024/02/11 01:40:19;;;;;;;13.53;12.33;;;12.70;99.90;;;;;;4992604;28;20171;-65
2024/02/11 01:42:46;;;;;;;14.40;13.00;;;12.70;99.90;;;;;;4991520;28;20595;-66
2024/02/11 01:45:13;;;;;;;13.63;12.33;;;12.70;99.90;;;;;;4992697;28;20443;-64
2024/02/11 01:47:39;;;;;;;12.70;11.70;;;12.60;99.90;;;;;;4992123;28;20416;-65
2024/02/11 01:50:08;;;;;;;12.33;11.07;;;12.60;99.90;;;;;;4992771;28;20819;-65
2024/02/11 01:52:36;;;;;;;12.30;11.30;;;12.60;99.90;;;;;;4980415;28;20633;-65
2024/02/11 01:55:06;;;;;;;13.17;12.07;;;12.60;99.90;;;;;;4996361;28;20499;-65
2024/02/11 01:57:33;;;;;;;13.33;12.00;;;12.60;99.90;;;;;;4996143;28;20418;-65
2024/02/11 01:59:59;;;;;;;13.10;11.80;;;12.60;99.90;;;;;;4996682;28;20452;-65
2024/02/11 02:02:29;;;;;;;11.70;10.70;;;12.60;99.90;;;;;;4996050;28;20427;-64
2024/02/11 02:04:55;;;;;;;11.50;10.50;;;12.60;99.90;;;;;;4996713;28;20421;-65
2024/02/11 02:07:20;;;;;;;12.43;11.33;;;12.60;99.90;;;;;;4996225;28;20436;-65
2024/02/11 02:09:48;;;;;;;10.97;10.07;;;12.60;99.90;;;;;;4994747;28;20178;-65
2024/02/11 02:12:17;;;;;;;12.43;11.13;;;12.60;99.90;;;;;;4995827;28;20276;-65
2024/02/11 02:14:43;;;;;;;12.00;10.80;;;12.60;99.90;;;;;;4995689;28;20414;-65
2024/02/11 02:17:08;;;;;;;11.07;10.17;;;12.60;99.90;;;;;;4995560;28;20546;-66
2024/02/11 02:19:34;;;;;;;11.90;10.60;;;12.50;99.90;;;;;;4977725;28;20947;-64
2024/02/11 02:22:00;;;;;;;11.33;10.43;;;12.60;99.90;;;;;;4995271;28;20217;-65
2024/02/11 02:24:26;;;;;;;12.00;10.80;;;12.50;99.90;;;;;;4995858;28;20175;-65
2024/02/11 02:26:51;;;;;;;10.90;10.00;;;12.50;99.90;;;;;;4995614;28;20432;-65
2024/02/11 02:29:17;;;;;;;11.50;10.57;;;12.50;99.90;;;;;;4996278;28;20172;-66
2024/02/11 02:31:43;;;;;;;11.57;10.67;;;12.50;99.90;;;;;;4995322;28;20204;-65
2024/02/11 02:34:09;;;;;;;11.53;10.43;;;12.50;99.90;;;;;;4996196;28;20640;-65
2024/02/11 02:36:36;;;;;;;10.63;9.83;;;12.50;99.90;;;;;;4994852;28;20236;-64
2024/02/11 02:39:02;;;;;;;11.13;9.93;;;12.50;99.90;;;;;;4996464;28;20271;-65
2024/02/11 02:41:28;;;;;;;11.47;10.30;;;12.50;99.90;;;;;;4995193;28;20438;-65
2024/02/11 02:43:54;;;;;;;11.47;10.47;;;12.50;99.90;;;;;;4996066;28;20417;-64
2024/02/11 02:46:21;;;;;;;11.67;10.20;;;12.50;99.90;;;;;;4995571;28;20175;-66
2024/02/11 02:48:50;;;;;;;10.40;9.50;;;12.50;99.90;;;;;;4993322;28;20606;-65
2024/02/11 02:51:18;;;;;;;10.93;9.90;;;12.50;99.90;;;;;;4994196;28;20558;-65
2024/02/11 02:53:45;;;;;;;12.00;10.93;;;12.50;99.90;;;;;;4994726;28;20920;-65
2024/02/11 02:56:11;;;;;;;10.20;9.40;;;12.50;99.90;;;;;;4995702;28;20438;-65
2024/02/11 02:58:36;;;;;;;11.03;10.20;;;12.40;99.90;;;;;;4994940;28;20445;-64
2024/02/11 03:01:04;;;;;;;10.67;9.57;;;12.40;99.90;;;;;;4995985;28;20261;-65
2024/02/11 03:03:30;;;;;;;10.60;9.80;;;12.40;99.90;;;;;;4994386;28;20520;-64
2024/02/11 03:05:56;;;;;;;9.93;9.10;;;12.40;99.90;;;;;;4994270;28;20408;-65
2024/02/11 03:08:22;;;;;;;10.47;9.60;;;12.40;99.90;;;;;;4994973;28;20486;-65
2024/02/11 03:10:47;;;;;;;10.07;9.27;;;12.40;99.90;;;;;;4994311;28;20171;-65
2024/02/11 03:13:13;;;;;;;10.03;9.17;;;12.40;99.90;;;;;;4995429;28;20211;-65
2024/02/11 03:15:39;;;;;;;9.63;8.93;;;12.40;99.90;;;;;;4994663;28;20285;-65
2024/02/11 03:18:05;;;;;;;9.80;9.00;;;12.40;99.90;;;;;;4994935;28;20228;-65
2024/02/11 03:20:30;;;;;;;10.27;9.47;;;12.40;99.90;;;;;;4993769;28;20200;-64
2024/02/11 03:22:56;;;;;;;10.63;9.43;;;12.30;99.90;;;;;;4994748;28;20834;-65
2024/02/11 03:25:22;;;;;;;10.43;9.43;;;12.30;99.90;;;;;;4995182;28;20186;-65
2024/02/11 03:27:52;;;;;;;9.97;9.10;;;12.30;99.90;;;;;;4993933;28;20671;-65
2024/02/11 03:30:21;;;;;;;10.03;9.20;;;12.30;99.90;;;;;;4995133;28;20257;-65
2024/02/11 03:32:48;;;;;;;10.87;9.97;;;12.30;99.90;;;;;;4976730;28;20461;-64
2024/02/11 03:35:15;;;;;;;10.20;9.30;;;12.30;99.90;;;;;;4994989;28;20411;-65
2024/02/11 03:37:40;;;;;;;10.17;9.27;;;12.30;99.90;;;;;;4994240;28;20426;-64
2024/02/11 03:40:12;;;;;;;9.40;8.70;;;12.30;99.90;;;;;;4977416;28;20416;-65
2024/02/11 03:42:38;;;;;;;9.83;8.90;;;12.30;99.90;;;;;;4992330;28;20280;-64
2024/02/11 03:45:12;;;;;;;8.33;7.70;;;12.30;99.90;;;;;;4993670;28;20586;-65
2024/02/11 03:47:41;;;;;;;9.17;8.37;;;12.20;99.90;;;;;;4993734;28;20464;-64
2024/02/11 03:50:13;;;;;;;11.70;8.80;;;12.20;99.90;;;;;;4994823;28;20424;-65
2024/02/11 03:52:39;;;;;;;11.33;10.43;;;12.20;99.90;;;;;;4993594;28;20992;-64
2024/02/11 03:55:06;;;;;;;11.00;10.10;;;12.20;99.90;;;;;;4994738;28;20421;-65
2024/02/11 03:57:32;;;;;;;14.60;11.40;;;12.20;99.90;;;;;;4994037;28;20415;-64
2024/02/11 03:59:58;;;;;;;11.87;10.83;;;12.20;99.90;;;;;;4976665;28;20522;-65
2024/02/11 04:02:24;;;;;;;11.50;10.50;;;12.10;99.90;;;;;;4994405;28;20815;-65
2024/02/11 04:04:51;;;;;;;11.77;10.67;;;12.20;99.90;;;;;;4993632;28;20454;-65
2024/02/11 04:07:19;;;;;;;11.37;10.50;;;12.20;99.90;;;;;;4993900;28;20236;-65
2024/02/11 04:09:46;;;;;;;12.90;10.17;;;12.20;99.90;;;;;;4993581;28;20407;-65
2024/02/11 04:12:13;;;;;;;11.77;10.57;;;12.20;99.90;;;;;;4993271;28;20468;-65
2024/02/11 04:14:41;;;;;;;10.70;9.90;;;12.20;99.90;;;;;;4992800;28;20933;-64
2024/02/11 04:17:13;;;;;;;12.50;10.97;;;12.20;99.90;;;;;;4993606;28;20242;-65
2024/02/11 04:19:39;;;;;;;12.10;10.83;;;12.20;99.90;;;;;;4975709;28;20865;-64
2024/02/11 04:22:07;;;;;;;12.40;11.33;;;12.20;99.90;;;;;;4994333;28;20424;-64
2024/02/11 04:24:32;;;;;;;11.37;10.40;;;12.20;99.90;;;;;;4993753;28;20843;-64
2024/02/11 04:26:58;;;;;;;12.33;11.23;;;12.20;99.90;;;;;;4993900;28;20474;-64
2024/02/11 04:29:25;;;;;;;12.33;11.27;;;12.20;99.90;;;;;;4993577;28;20249;-64
2024/02/11 04:31:51;;;;;;;11.97;10.97;;;12.20;99.90;;;;;;4992625;28;20692;-65
2024/02/11 04:34:17;;;;;;;11.60;10.60;;;12.20;99.90;;;;;;4994112;28;20183;-65
2024/02/11 04:36:45;;;;;;;11.23;10.27;;;12.20;99.90;;;;;;4992840;28;20946;-64
2024/02/11 04:39:11;;;;;;;11.10;10.10;;;12.20;99.90;;;;;;4993461;28;20433;-65
2024/02/11 04:41:39;;;;;;;11.43;10.37;;;12.20;99.90;;;;;;4992032;28;20443;-64
2024/02/11 04:44:08;;;;;;;10.83;9.83;;;12.20;99.90;;;;;;4993326;28;20177;-65
2024/02/11 04:46:34;;;;;;;10.93;10.13;;;12.20;99.90;;;;;;4993237;28;20496;-64
2024/02/11 04:49:00;;;;;;;10.90;9.90;;;12.20;99.90;;;;;;4992884;28;20416;-64
2024/02/11 04:51:28;;;;;;;15.63;10.80;;;12.20;99.90;;;;;;4993186;28;20954;-65
2024/02/11 04:53:57;;;;;;;11.80;10.70;;;12.20;99.90;;;;;;4991655;28;20408;-64
2024/02/11 04:56:27;;;;;;;11.13;10.23;;;12.30;99.90;;;;;;4975926;28;20437;-65
2024/02/11 04:58:53;;;;;;;11.60;10.60;;;12.30;99.90;;;;;;4992176;28;20500;-64
2024/02/11 05:01:20;;;;;;;11.80;10.70;;;12.30;99.90;;;;;;4992258;28;20416;-65
2024/02/11 05:03:47;;;;;;;12.57;11.57;;;12.40;99.90;;;;;;4992608;28;20176;-64
2024/02/11 05:06:18;;;;;;;11.33;10.33;;;12.40;99.90;;;;;;4993049;28;20411;-65
2024/02/11 05:08:45;;;;;;;12.30;11.33;;;12.40;99.90;;;;;;4992321;28;20422;-64
2024/02/11 05:11:10;;;;;;;11.70;10.70;;;12.40;99.90;;;;;;4993235;28;20450;-65
2024/02/11 05:13:37;;;;;;;10.90;10.00;;;12.50;99.90;;;;;;4992465;28;20424;-64
2024/02/11 05:16:05;;;;;;;11.90;10.70;;;12.50;99.90;;;;;;4992815;28;20636;-64
2024/02/11 05:18:32;;;;;;;12.07;10.90;;;12.50;99.90;;;;;;4992093;28;20502;-65
2024/02/11 05:21:04;;;;;;;11.00;10.10;;;12.50;99.90;;;;;;4992295;28;20994;-64
2024/02/11 05:23:30;;;;;;;10.87;9.97;;;12.50;99.90;;;;;;4990993;28;20431;-65
2024/02/11 05:25:58;;;;;;;11.40;10.50;;;12.50;99.90;;;;;;4983109;28;20473;-66
2024/02/11 05:28:23;;;;;;;12.00;11.00;;;12.50;99.90;;;;;;4972789;28;20265;-65
2024/02/11 05:30:52;;;;;;;10.73;9.93;;;12.50;99.90;;;;;;4972752;28;20833;-65
2024/02/11 05:33:19;;;;;;;10.80;10.00;;;12.60;99.90;;;;;;4973618;28;20291;-65
2024/02/11 05:35:46;;;;;;;10.77;9.93;;;12.60;99.90;;;;;;4973196;28;20431;-65
2024/02/11 05:38:13;;;;;;;11.60;10.70;;;12.50;99.90;;;;;;4992101;28;20423;-65
2024/02/11 05:40:41;;;;;;;11.60;10.70;;;12.60;99.90;;;;;;4974692;28;20406;-65
2024/02/11 05:43:12;;;;;;;13.20;10.30;;;12.60;99.90;;;;;;4992966;28;20450;-65
2024/02/11 05:45:39;;;;;;;10.70;9.87;;;12.60;99.90;;;;;;4991241;28;20526;-65
2024/02/11 05:48:06;;;;;;;10.10;9.30;;;12.60;99.90;;;;;;4992624;28;20445;-65
2024/02/11 05:50:31;;;;;;;10.30;9.50;;;12.70;99.90;;;;;;4992699;28;20890;-71
2024/02/11 05:52:58;;;;;;;10.30;9.40;;;12.70;99.90;;;;;;4990345;28;20543;-66
2024/02/11 05:55:24;;;;;;;9.70;9.00;;;12.70;99.90;;;;;;4991955;28;20183;-65
2024/02/11 05:57:51;;;;;;;10.93;10.13;;;12.60;99.90;;;;;;4991911;28;20409;-65
2024/02/11 06:00:25;;;;;;;11.50;10.50;;;12.70;99.90;;;;;;4991805;28;20466;-65
2024/02/11 06:02:55;;;;;;;10.10;9.40;;;12.70;99.90;;;;;;4991927;28;20536;-65
2024/02/11 06:05:23;;;;;;;10.03;9.23;;;12.70;99.90;;;;;;4992216;28;20419;-64
2024/02/11 06:07:55;;;;;;;13.53;12.23;;;12.70;99.90;;;;;;4991591;28;20428;-64
2024/02/11 06:10:25;;;;;;;14.93;13.40;;;12.70;99.90;;;;;;4992999;28;20422;-64
2024/02/11 06:12:51;;;;;;;9.60;8.80;;;12.70;99.90;;;;;;4991389;28;20465;-65
2024/02/11 06:15:23;;;;;;;10.03;9.23;;;12.70;99.90;;;;;;4991276;28;20441;-68
2024/02/11 06:17:50;;;;;;;10.67;9.77;;;12.70;99.90;;;;;;4991751;28;20536;-65
2024/02/11 06:20:18;;;;;;;9.60;8.80;;;12.70;99.90;;;;;;4992523;28;20413;-65
2024/02/11 06:22:51;;;;;;;10.90;9.90;;;12.80;99.90;;;;;;4989898;28;20487;-65
2024/02/11 06:25:19;;;;;;;9.17;8.40;;;12.70;99.90;;;;;;4991354;28;20456;-68
2024/02/11 06:27:46;;;;;;;9.90;9.00;;;12.80;99.90;;;;;;4973454;28;20432;-69
2024/02/11 06:30:12;;;;;;;12.57;9.83;;;12.80;99.90;;;;;;4988439;28;20521;-68
2024/02/11 06:32:40;;;;;;;8.17;7.43;;;12.70;99.90;;;;;;4991378;28;20553;-68
2024/02/11 06:35:06;;;;;;;8.90;8.20;;;12.70;99.90;;;;;;4991830;28;20403;-69
2024/02/11 06:37:32;;;;;;;8.50;7.80;;;12.60;99.90;;;;;;4991407;28;20755;-69
2024/02/11 06:39:58;;;;;;;8.30;7.70;;;12.60;99.90;;;;;;4992711;28;20425;-68
2024/02/11 06:42:26;;;;;;;7.90;7.30;;;12.40;99.90;;;;;;4995590;28;20484;-69
2024/02/11 06:44:56;;;;;;;6.97;6.57;;;12.40;99.90;;;;;;4994791;28;20232;-68
2024/02/11 06:47:22;;;;;;;7.13;6.63;;;12.50;99.90;;;;;;4995714;28;20429;-68
2024/02/11 06:49:48;;;;;;;6.30;6.00;;;12.60;99.90;;;;;;4995059;28;20749;-68
2024/02/11 06:52:14;;;;;;;6.70;6.30;;;12.60;99.90;;;;;;4995300;28;20626;-68
2024/02/11 06:54:40;;;;;;;6.40;6.00;;;12.50;99.90;;;;;;4995739;28;20540;-68
2024/02/11 06:57:06;;;;;;;5.87;5.47;;;12.50;99.90;;;;;;4994887;28;20248;-69
2024/02/11 06:59:33;;;;;;;5.40;5.10;;;12.30;99.90;;;;;;4976457;28;20418;-69
2024/02/11 07:01:59;;;;;;;4.80;4.60;;;12.30;99.90;;;;;;4994129;28;20437;-68
2024/02/11 07:04:32;;;;;;;4.20;4.00;;;12.40;99.90;;;;;;4994670;28;20428;-69
2024/02/11 07:07:03;;;;;;;3.90;3.80;;;12.40;99.90;;;;;;4994576;28;20871;-68
2024/02/11 07:09:29;;;;;;;3.53;3.43;;;12.40;99.90;;;;;;4994032;28;20431;-68
2024/02/11 07:11:57;;;;;;;4.20;4.10;;;12.40;99.90;;;;;;4992743;28;20448;-65
2024/02/11 07:14:23;;;;;;;3.87;3.77;;;12.40;99.90;;;;;;4977307;28;20444;-65
2024/02/11 07:16:49;;;;;;;5.20;4.90;;;12.30;99.90;;;;;;4995105;28;20547;-65
2024/02/11 07:19:16;;;;;;;4.40;4.00;;;12.20;99.90;;;;;;4994224;28;20813;-64
2024/02/11 07:21:42;;;;;;;4.43;4.23;;;12.10;99.90;;;;;;4992647;28;20423;-67
2024/02/11 07:24:08;;;;;;;3.97;3.77;;;12.20;99.90;;;;;;4993824;28;20418;-64
2024/02/11 07:26:35;;;;;;;4.50;4.30;;;12.00;99.90;;;;;;4993738;28;20532;-65
2024/02/11 07:29:01;;;;;;;4.10;3.90;;;11.80;99.90;;;;;;4993584;28;20421;-65
2024/02/11 07:31:27;;;;;;;4.40;4.10;;;11.70;99.90;;;;;;4994307;28;20460;-70
2024/02/11 07:33:53;;;;;;;4.33;4.10;;;11.70;99.90;;;;;;4993363;28;20515;-65
2024/02/11 07:36:22;;;;;;;5.20;4.80;;;11.70;99.90;;;;;;4976691;28;20426;-67
2024/02/11 07:38:51;;;;;;;4.10;3.90;;;11.70;99.90;;;;;;4993621;28;20442;-65
2024/02/11 07:41:20;;;;;;;5.13;4.30;;;11.60;99.90;;;;;;4993385;28;20934;-65
2024/02/11 07:43:50;;;;;;;5.00;4.70;;;11.60;99.90;;;;;;4994370;28;20435;-65
2024/02/11 07:46:21;;;;;;;4.50;4.27;;;11.60;99.90;;;;;;4994950;28;20416;-65
2024/02/11 07:48:48;;;;;;;4.60;4.30;;;11.60;99.90;;;;;;4994313;28;20395;-65
2024/02/11 07:51:15;;;;;;;4.60;4.20;;;11.60;99.90;;;;;;4993626;28;20464;-65
2024/02/11 07:53:41;;;;;;;6.17;3.97;;;11.60;99.90;;;;;;4994656;28;20427;-65
2024/02/11 07:56:14;;;;;;;4.37;3.97;;;11.60;99.90;;;;;;4990977;28;20517;-65
2024/02/11 07:58:41;;;;;;;4.77;4.37;;;11.60;99.90;;;;;;4994032;28;20418;-65
2024/02/11 08:01:07;;;;;;;5.60;4.07;;;11.70;99.90;;;;;;4993593;28;20420;-65
2024/02/11 08:03:33;;;;;;;4.47;3.73;;;11.80;99.90;;;;;;4994506;28;20415;-65
2024/02/11 08:05:59;;;;;;;4.23;3.50;;;11.70;99.90;;;;;;4993646;28;20424;-64
2024/02/11 08:08:25;;;;;;;5.07;3.90;;;11.80;99.90;;;;;;4994371;28;20410;-65
2024/02/11 08:10:51;;;;;;;5.37;3.87;;;11.90;99.90;;;;;;4974273;28;20194;-65
2024/02/11 08:13:17;;;;;;;4.33;3.33;;;11.90;99.90;;;;;;4994231;28;20485;-65
2024/02/11 08:15:45;;;;;;;4.20;3.30;;;11.90;99.90;;;;;;4994501;28;20399;-65
2024/02/11 08:18:10;;;;;;;4.77;3.30;;;12.00;99.90;;;;;;4993323;28;20227;-65
2024/02/11 08:20:36;;;;;;;4.80;3.90;;;12.10;99.90;;;;;;4994082;28;20929;-65
2024/02/11 08:23:02;;;;;;;4.40;4.10;;;12.10;99.90;;;;;;4992816;28;20188;-65
2024/02/11 08:25:28;;;;;;;3.60;3.40;;;12.10;99.90;;;;;;4993879;28;20640;-65
2024/02/11 08:27:55;;;;;;;4.47;4.07;;;12.20;99.90;;;;;;4992541;28;20416;-65
2024/02/11 08:30:22;;;;;;;4.00;3.67;;;12.30;99.90;;;;;;4993836;28;20740;-65
2024/02/11 08:32:48;;;;;;;4.23;3.80;;;12.20;99.90;;;;;;4991143;28;20460;-65
2024/02/11 08:35:14;;;;;;;4.33;3.90;;;12.20;99.90;;;;;;4993265;28;20957;-65
2024/02/11 08:37:41;;;;;;;5.03;4.03;;;12.30;99.90;;;;;;4992680;28;20432;-65
2024/02/11 08:40:07;;;;;;;7.17;4.00;;;12.20;99.90;;;;;;4992444;28;20435;-65
2024/02/11 08:42:33;;;;;;;6.40;4.40;;;12.10;99.90;;;;;;4993589;28;20434;-65
2024/02/11 08:45:00;;;;;;;5.20;3.93;;;12.10;99.90;;;;;;4992803;28;20819;-65
2024/02/11 08:47:26;;;;;;;6.60;4.27;;;12.10;99.90;;;;;;4993768;28;20425;-65
2024/02/11 08:49:52;;;;;;;5.20;4.47;;;12.20;99.90;;;;;;4992887;28;20417;-65
2024/02/11 08:52:18;;;;;;;7.40;6.00;;;12.30;99.90;;;;;;4993128;28;20480;-65
2024/02/11 08:54:44;;;;;;;5.83;5.33;;;12.30;99.90;;;;;;4989724;28;20191;-65
2024/02/11 08:57:14;;;;;;;5.53;5.03;;;12.30;99.90;;;;;;4988026;28;20437;-65
2024/02/11 08:59:43;;;;;;;5.83;4.83;;;12.20;99.90;;;;;;4989213;28;20280;-65
2024/02/11 09:02:12;;;;;;;8.80;6.13;;;12.30;99.90;;;;;;4988552;28;20428;-65
2024/02/11 09:04:38;;;;;;;7.37;5.53;;;12.20;99.90;;;;;;4992298;28;20440;-65
2024/02/11 09:07:07;;;;;;;9.73;6.40;;;12.30;99.90;;;;;;4992675;28;20992;-65
2024/02/11 09:09:33;;;;;;;6.40;5.40;;;12.20;99.90;;;;;;4974591;28;21007;-65
2024/02/11 09:11:59;;;;;;;6.17;5.53;;;12.20;99.90;;;;;;4992054;28;20482;-64
2024/02/11 09:14:27;;;;;;;6.70;6.13;;;12.20;99.90;;;;;;4992956;28;20417;-65
2024/02/11 09:16:53;;;;;;;7.53;5.63;;;12.20;99.90;;;;;;4991412;28;20492;-64
2024/02/11 09:19:19;;;;;;;6.83;5.90;;;12.30;99.90;;;;;;4993164;28;20428;-65
2024/02/11 09:21:45;;;;;;;5.87;5.33;;;12.30;99.90;;;;;;4992725;28;20427;-65
2024/02/11 09:24:11;;;;;;;6.53;5.73;;;12.30;99.90;;;;;;4991868;28;20477;-65
2024/02/11 09:26:37;;;;;;;7.70;6.10;;;12.30;99.90;;;;;;4992066;28;20257;-65
2024/02/11 09:29:05;;;;;;;6.13;5.53;;;12.30;99.90;;;;;;4992318;28;20570;-65
2024/02/11 09:31:31;;;;;;;7.57;6.33;;;12.30;99.90;;;;;;4992127;28;20795;-64
2024/02/11 09:33:57;;;;;;;7.47;6.47;;;12.30;99.90;;;;;;4991762;28;20424;-65
2024/02/11 09:36:23;;;;;;;6.47;5.90;;;12.40;99.90;;;;;;4992363;28;20958;-65
2024/02/11 09:38:49;;;;;;;7.10;6.30;;;12.40;99.90;;;;;;4992901;28;20432;-65
2024/02/11 09:41:15;;;;;;;6.37;5.77;;;12.30;99.90;;;;;;4992264;28;20413;-67
2024/02/11 09:43:41;;;;;;;8.67;7.37;;;12.40;99.90;;;;;;4992323;28;20201;-67
2024/02/11 09:46:08;;;;;;;8.20;7.63;;;12.60;99.90;;;;;;4973777;28;20173;-67
2024/02/11 09:48:36;;;;;;;8.97;8.20;;;13.00;99.90;;;;;;4991558;28;20514;-67
2024/02/11 09:51:02;;;;;;;9.47;8.67;;;13.30;99.90;;;;;;4991608;28;20421;-66
2024/02/11 09:53:30;;;;;;;7.70;7.13;;;13.70;99.90;;;;;;4992187;28;20427;-66
2024/02/11 09:55:56;;;;;;;7.70;7.20;;;13.90;99.90;;;;;;4990511;28;20446;-66
2024/02/11 09:58:21;;;;;;;7.97;7.37;;;14.10;99.90;;;;;;4990926;28;20524;-67
2024/02/11 10:00:47;;;;;;;7.13;6.57;;;14.20;99.90;;;;;;4985092;28;20580;-67
2024/02/11 10:03:18;;;;;;;6.53;6.03;;;14.30;99.90;;;;;;4981114;28;20200;-66
2024/02/11 10:05:49;;;;;;;6.97;6.50;;;14.30;99.90;;;;;;4982453;28;20166;-66
2024/02/11 10:08:19;;;;;;;8.03;7.20;;;14.50;99.90;;;;;;4991562;28;20432;-67
2024/02/11 10:10:47;;;;;;;9.10;8.03;;;14.70;99.90;;;;;;4985660;28;20431;-66
2024/02/11 10:13:19;;;;;;;6.63;6.23;;;14.80;99.90;;;;;;4981952;28;20452;-66
2024/02/11 10:15:46;;;;;;;7.17;6.63;;;14.90;99.90;;;;;;4986599;28;20416;-67
2024/02/11 10:18:12;;;;;;;7.40;6.80;;;15.00;99.90;;;;;;4994760;28;20535;-67
2024/02/11 10:20:38;;;;;;;7.93;7.37;;;15.00;99.90;;;;;;4993126;28;21028;-67
2024/02/11 10:23:05;;;;;;;6.57;6.17;;;15.10;99.90;;;;;;4986822;28;20507;-67
2024/02/11 10:25:34;;;;;;;7.03;6.33;;;15.30;99.90;;;;;;4995971;28;20441;-66
2024/02/11 10:28:01;;;;;;;5.60;5.20;;;15.40;99.90;;;;;;4993973;28;20433;-66
2024/02/11 10:30:27;;;;;;;6.40;5.90;;;15.50;99.90;;;;;;4996280;28;20501;-66
2024/02/11 10:32:59;;;;;;;4.70;4.40;;;15.60;99.90;;;;;;4994490;28;21035;-66
2024/02/11 10:35:29;;;;;;;5.57;5.07;;;15.50;99.90;;;;;;4994854;28;20801;-66
2024/02/11 10:37:55;;;;;;;7.23;5.57;;;15.50;99.90;;;;;;4995035;28;20827;-67
2024/02/11 10:40:23;;;;;;;6.10;5.50;;;15.60;99.90;;;;;;4994760;28;20441;-66
2024/02/11 10:42:50;;;;;;;6.23;5.60;;;15.60;99.90;;;;;;4977998;28;20424;-66
2024/02/11 10:45:16;;;;;;;5.20;4.80;;;15.50;99.90;;;;;;4994770;28;20479;-66
2024/02/11 10:47:42;;;;;;;5.10;4.70;;;15.60;99.90;;;;;;4982947;28;20425;-66
2024/02/11 10:50:10;;;;;;;5.40;4.90;;;15.70;99.90;;;;;;4965763;28;20501;-66
2024/02/11 10:52:41;;;;;;;5.50;5.10;;;15.70;99.90;;;;;;4992872;28;20465;-66
2024/02/11 10:55:12;;;;;;;6.37;5.80;;;15.80;99.90;;;;;;4995126;28;20417;-67
2024/02/11 10:57:55;;;;;;;5.93;5.43;;;15.90;99.90;;;;;;4994782;28;20426;-67
2024/02/11 11:00:22;;;;;;;8.53;7.40;;;15.90;99.90;;;;;;4995403;28;20399;-67
2024/02/11 11:02:52;;;;;;;5.50;4.70;;;16.00;99.90;;;;;;4995409;28;20430;-67
2024/02/11 11:05:21;;;;;;;5.37;4.77;;;16.00;99.90;;;;;;4994598;28;20457;-67
2024/02/11 11:07:48;;;;;;;4.53;4.13;;;16.10;99.90;;;;;;4995015;28;20431;-67
2024/02/11 11:10:14;;;;;;;6.07;4.93;;;16.20;99.90;;;;;;4994236;28;20984;-67
2024/02/11 11:12:50;;;;;;;4.70;4.30;;;16.20;99.90;;;;;;4994671;28;20442;-67
2024/02/11 11:15:31;;;;;;;4.90;4.40;;;16.20;99.90;;;;;;4994598;28;20427;-69
2024/02/11 11:17:59;;;;;;;27.57;22.13;;;16.30;99.90;;;;;;4996364;28;20462;-68
2024/02/11 11:20:26;;;;;;;133.97;89.83;;;16.30;99.90;;;;;;4994844;28;20422;-68
2024/02/11 11:22:55;;;;;;;51.27;40.10;;;16.40;99.90;;;;;;4994396;28;20438;-67
2024/02/11 11:25:36;;;;;;;7.80;7.00;;;16.30;99.90;;;;;;4993243;28;20437;-67
2024/02/11 11:28:20;;;;;;;5.40;5.00;;;16.40;99.90;;;;;;4993658;28;20438;-66
2024/02/11 11:30:46;;;;;;;6.80;6.17;;;16.40;99.90;;;;;;4995038;28;20418;-67
2024/02/11 11:33:12;;;;;;;5.40;5.00;;;16.40;99.90;;;;;;4994178;28;20451;-67
2024/02/11 11:35:39;;;;;;;5.30;4.90;;;16.40;99.90;;;;;;4994513;28;20628;-67
2024/02/11 11:38:05;;;;;;;5.87;5.37;;;16.40;99.90;;;;;;4994049;28;20467;-67
2024/02/11 11:40:36;;;;;;;6.77;5.73;;;16.40;99.90;;;;;;4994707;28;20827;-67
2024/02/11 11:43:17;;;;;;;5.70;5.03;;;16.40;99.90;;;;;;4993595;28;20171;-66
2024/02/11 11:45:59;;;;;;;5.77;5.20;;;16.30;99.90;;;;;;4994789;28;20808;-67
2024/02/11 11:48:26;;;;;;;5.00;4.60;;;16.30;99.90;;;;;;4994237;28;20442;-67
2024/02/11 11:51:03;;;;;;;75.03;60.03;;;16.30;99.90;;;;;;4993104;28;20467;-67
2024/02/11 11:53:29;;;;;;;78.33;49.23;;;16.30;99.90;;;;;;4994032;28;20423;-67
2024/02/11 11:55:57;;;;;;;47.77;38.53;;;16.30;99.90;;;;;;4960692;28;20848;-68
2024/02/11 11:58:24;;;;;;;10.03;8.30;;;16.30;99.90;;;;;;4992564;28;20426;-67
2024/02/11 12:00:56;;;;;;;12.63;7.13;;;16.30;99.90;;;;;;4994185;28;20486;-67
2024/02/11 12:03:23;;;;;;;5.60;5.10;;;16.30;99.90;;;;;;4994381;28;20427;-67
2024/02/11 12:05:49;;;;;;;5.73;5.13;;;16.20;99.90;;;;;;4975448;28;20446;-67
2024/02/11 12:08:15;;;;;;;6.50;5.80;;;16.20;99.90;;;;;;4987455;28;20430;-67
2024/02/11 12:10:41;;;;;;;5.77;5.27;;;16.10;99.40;;;;;;4993877;28;20811;-67
2024/02/11 12:13:17;;;;;;;6.37;5.40;;;16.10;99.90;;;;;;4981729;28;20460;-67
2024/02/11 12:15:43;;;;;;;5.57;5.07;;;16.10;99.70;;;;;;4985186;28;20409;-67
2024/02/11 12:18:11;;;;;;;5.13;4.67;;;16.00;99.90;;;;;;4987661;28;20454;-67
2024/02/11 12:20:43;;;;;;;8.43;6.43;;;16.00;99.90;;;;;;4993786;28;20458;-67
2024/02/11 12:23:10;;;;;;;8.10;6.67;;;16.10;99.90;;;;;;4984600;28;20510;-67
2024/02/11 12:25:38;;;;;;;5.20;4.70;;;16.10;99.90;;;;;;4970813;28;20497;-67
2024/02/11 12:28:06;;;;;;;5.63;5.07;;;16.10;99.40;;;;;;4987799;28;20473;-67
2024/02/11 12:30:33;;;;;;;6.00;5.50;;;16.10;99.60;;;;;;4989511;28;20426;-66
2024/02/11 12:32:59;;;;;;;5.90;5.40;;;16.10;98.30;;;;;;4987367;28;20481;-66
2024/02/11 12:35:29;;;;;;;8.97;4.90;;;16.10;99.90;;;;;;4989324;28;20516;-67
2024/02/11 12:37:56;;;;;;;7.97;5.03;;;16.00;98.20;;;;;;4993067;28;20411;-68
2024/02/11 12:40:23;;;;;;;6.30;5.90;;;16.00;98.50;;;;;;4975366;28;20414;-68